Time;durP1;ratioP1;P1;durP2;ratioP2;P2;SDS_P1;SDS_P2;PMS_P1;PMS_P2;Temp;Humidity;BMP_temperature;BMP_pressure;BME280_temperature;BME280_humidity;BME280_pressure;Samples;Min_cycle;Max_cycle;Signal;HPM_P1;HPM_P2
2022/09/30 00:01:20;;;;;;;5.23;4.73;;;;;;;7.38;100.00;95442.13;6156322;23;20961;-78
2022/09/30 00:03:48;;;;;;;5.33;4.90;;;;;;;7.11;100.00;95409.31;6156205;23;20384;-78
2022/09/30 00:06:15;;;;;;;4.87;4.47;;;;;;;7.14;100.00;95424.44;6130276;23;20389;-78
2022/09/30 00:08:42;;;;;;;8.00;4.80;;;;;;;7.26;100.00;95442.09;6129958;23;20435;-78
2022/09/30 00:11:15;;;;;;;6.80;5.60;;;;;;;7.34;100.00;95446.47;6129596;23;20506;-78
2022/09/30 00:13:43;;;;;;;5.67;4.87;;;;;;;7.19;100.00;95429.47;6129560;23;20426;-78
2022/09/30 00:16:11;;;;;;;6.80;4.30;;;;;;;7.34;100.00;95446.47;6105423;23;20396;-78
2022/09/30 00:18:39;;;;;;;5.60;5.10;;;;;;;7.18;100.00;95425.31;6105206;23;20436;-78
2022/09/30 00:21:07;;;;;;;6.57;5.77;;;;;;;7.11;100.00;95417.97;6129498;23;20403;-78
2022/09/30 00:23:36;;;;;;;4.90;4.07;;;;;;;7.30;100.00;95446.38;6107484;23;20399;-78
2022/09/30 00:26:10;;;;;;;4.80;4.40;;;;;;;7.35;100.00;95448.81;6131723;23;20803;-78
2022/09/30 00:28:39;;;;;;;6.07;4.00;;;;;;;7.18;100.00;95443.72;6131296;23;20430;-78
2022/09/30 00:31:10;;;;;;;8.50;4.10;;;;;;;6.90;100.00;95409.38;6157796;23;20415;-78
2022/09/30 00:33:37;;;;;;;6.53;3.83;;;;;;;7.05;100.00;95429.00;6131753;23;20419;-78
2022/09/30 00:36:04;;;;;;;4.70;4.40;;;;;;;7.15;100.00;95438.34;6158583;23;20384;-78
2022/09/30 00:38:31;;;;;;;5.93;5.33;;;;;;;6.86;100.00;95392.75;6107562;23;20910;-78
2022/09/30 00:40:59;;;;;;;5.20;4.60;;;;;;;7.12;100.00;95442.41;6131490;23;20403;-78
2022/09/30 00:43:50;;;;;;;7.07;4.17;;;;;;;7.10;100.00;95445.34;6131601;23;20399;-78
2022/09/30 00:46:33;;;;;;;5.03;4.63;;;;;;;6.93;100.00;95431.59;6106888;23;20900;-78
2022/09/30 00:49:04;;;;;;;6.70;4.73;;;;;;;6.85;100.00;95417.47;6132768;23;20902;-78
2022/09/30 00:51:38;;;;;;;4.27;3.87;;;;;;;6.97;100.00;95440.41;6160074;23;20704;-78
2022/09/30 00:54:09;;;;;;;5.63;5.17;;;;;;;6.62;100.00;95403.16;6133178;23;20462;-78
2022/09/30 00:56:41;;;;;;;4.90;4.50;;;;;;;6.88;100.00;95450.22;6132102;23;20399;-78
2022/09/30 00:59:11;;;;;;;4.97;4.50;;;;;;;6.79;100.00;95432.66;6133159;23;20407;-78
2022/09/30 01:01:39;;;;;;;5.30;4.80;;;;;;;6.96;100.00;95459.88;6110310;23;20982;-78
2022/09/30 01:04:13;;;;;;;6.27;4.70;;;;;;;6.40;100.00;95391.91;6133897;23;20877;-78
2022/09/30 01:06:40;;;;;;;4.23;3.90;;;;;;;6.54;100.00;95428.41;6133459;23;20400;-78
2022/09/30 01:09:07;;;;;;;7.20;4.10;;;;;;;6.79;100.00;95468.66;6133268;23;20439;-78
2022/09/30 01:11:34;;;;;;;4.67;4.27;;;;;;;6.29;100.00;95421.53;6133642;23;20703;-78
2022/09/30 01:14:07;;;;;;;5.73;5.10;;;;;;;6.37;100.00;95425.94;6132599;23;20400;-78
2022/09/30 01:16:59;;;;;;;5.10;4.70;;;;;;;6.69;100.00;95467.22;6158253;23;20456;-78
2022/09/30 01:19:45;;;;;;;5.07;4.23;;;;;;;6.72;100.00;95471.81;6122107;23;20439;-78
2022/09/30 01:22:51;;;;;;;5.93;4.90;;;;;;;6.50;100.00;95425.66;6158151;23;20463;-78
2022/09/30 01:25:55;;;;;;;4.70;3.93;;;;;;;6.78;100.00;95456.63;6092195;23;20404;-78
2022/09/30 01:29:10;;;;;;;6.27;4.67;;;;;;;6.72;100.00;95456.06;6158680;23;20906;-78
2022/09/30 01:31:55;;;;;;;6.27;5.10;;;;;;;6.72;100.00;95465.81;6131398;23;20404;-78
2022/09/30 01:34:42;;;;;;;6.17;4.53;;;;;;;6.40;100.00;95441.78;6107516;23;20406;-78
2022/09/30 01:37:14;;;;;;;5.13;4.00;;;;;;;6.53;100.00;95459.13;6107985;23;20427;-78
2022/09/30 01:39:47;;;;;;;4.70;4.10;;;;;;;6.83;100.00;95469.56;6132381;23;20442;-78
2022/09/30 01:42:26;;;;;;;6.03;3.93;;;;;;;7.00;100.00;95485.19;6130955;23;20384;-77
2022/09/30 01:45:03;;;;;;;3.60;3.30;;;;;;;6.92;100.00;95482.63;6131583;23;21274;-78
2022/09/30 01:47:35;;;;;;;4.40;3.93;;;;;;;6.79;100.00;95468.66;6157766;23;20438;-78
2022/09/30 01:50:14;;;;;;;4.00;3.70;;;;;;;6.51;100.00;95460.56;6157593;23;20396;-78
2022/09/30 01:53:06;;;;;;;5.37;4.87;;;;;;;6.48;100.00;95495.34;6107799;23;20733;-78
2022/09/30 01:55:49;;;;;;;4.30;3.90;;;;;;;6.08;100.00;95453.75;6131673;23;20503;-78
2022/09/30 01:58:32;;;;;;;4.50;4.10;;;;;;;6.17;100.00;95483.34;6107515;23;20416;-78
2022/09/30 02:01:04;;;;;;;6.67;4.53;;;;;;;6.07;100.00;95482.94;6107739;23;20817;-78
2022/09/30 02:03:35;;;;;;;4.30;3.90;;;;;;;6.04;100.00;95480.97;6107498;23;20399;-78
2022/09/30 02:06:18;;;;;;;7.07;4.63;;;;;;;6.22;100.00;95487.63;6107538;23;20468;-78
2022/09/30 02:08:47;;;;;;;7.37;3.90;;;;;;;6.03;100.00;95463.69;6132878;23;20530;-78
2022/09/30 02:11:19;;;;;;;4.57;3.83;;;;;;;6.17;100.00;95488.59;6132586;23;20462;-78
2022/09/30 02:13:57;;;;;;;8.70;4.27;;;;;;;6.10;100.00;95480.44;6108378;23;20396;-78
2022/09/30 02:16:34;;;;;;;7.20;3.90;;;;;;;6.30;100.00;95499.94;6132559;23;20396;-78
2022/09/30 02:19:10;;;;;;;5.87;4.10;;;;;;;6.33;100.00;95499.31;6132826;23;20451;-78
2022/09/30 02:21:41;;;;;;;6.27;4.83;;;;;;;6.43;100.00;95506.81;6132944;23;20482;-78
2022/09/30 02:24:13;;;;;;;5.10;3.67;;;;;;;6.18;100.00;95461.25;6158246;23;20471;-78
2022/09/30 02:26:43;;;;;;;11.33;5.53;;;;;;;6.45;100.00;95507.25;6158608;23;20386;-78
2022/09/30 02:29:17;;;;;;;4.70;4.30;;;;;;;6.55;100.00;95495.59;6132263;23;20454;-78
2022/09/30 02:31:48;;;;;;;4.67;4.10;;;;;;;6.35;100.00;95499.75;6131699;23;20423;-78
2022/09/30 02:34:31;;;;;;;7.60;5.10;;;;;;;6.00;100.00;95467.69;6132457;23;20408;-78
2022/09/30 02:37:09;;;;;;;7.13;6.47;;;;;;;6.07;100.00;95498.69;6107484;23;20382;-77
2022/09/30 02:39:53;;;;;;;11.23;4.10;;;;;;;5.96;100.00;95493.03;6158118;23;20514;-78
2022/09/30 02:42:25;;;;;;;4.03;3.63;;;;;;;5.83;100.00;95467.75;6158703;23;20430;-78
2022/09/30 02:44:55;;;;;;;4.30;3.90;;;;;;;5.99;100.00;95483.75;6106997;23;20384;-78
2022/09/30 02:47:30;;;;;;;5.40;4.87;;;;;;;6.19;100.00;95517.16;6158553;23;20408;-78
2022/09/30 02:50:06;;;;;;;4.60;4.07;;;;;;;6.23;100.00;95512.78;6108099;23;20387;-78
2022/09/30 02:52:47;;;;;;;4.20;3.80;;;;;;;6.13;100.00;95513.16;6158853;23;21264;-78
2022/09/30 02:55:27;;;;;;;4.87;4.47;;;;;;;6.06;100.00;95512.91;6112884;23;20411;-78
2022/09/30 02:58:05;;;;;;;4.50;4.10;;;;;;;5.94;100.00;95492.56;6166949;23;20427;-77
2022/09/30 03:00:33;;;;;;;4.20;3.80;;;;;;;6.16;100.00;95520.41;6140406;23;20696;-78
2022/09/30 03:03:06;;;;;;;4.10;3.80;;;;;;;5.86;100.00;95482.84;6138777;23;20406;-78
2022/09/30 03:05:33;;;;;;;4.63;4.00;;;;;;;5.39;100.00;95395.66;6166534;23;20444;-77
2022/09/30 03:08:00;;;;;;;5.23;4.77;;;;;;;6.07;100.00;95504.69;6139307;23;20420;-77
2022/09/30 03:10:29;;;;;;;10.97;4.57;;;;;;;6.25;100.00;95526.34;6164640;23;20797;-78
2022/09/30 03:13:26;;;;;;;5.90;4.63;;;;;;;5.96;100.00;95503.53;6131388;23;20889;-78
2022/09/30 03:15:52;;;;;;;4.70;4.30;;;;;;;6.06;100.00;95515.53;6071719;23;20404;-78
2022/09/30 03:18:35;;;;;;;4.57;4.20;;;;;;;6.18;100.00;95518.22;6106983;23;20447;-78
2022/09/30 03:21:16;;;;;;;14.17;4.50;;;;;;;6.02;100.00;95501.50;6107072;23;20396;-80
2022/09/30 03:24:01;;;;;;;5.83;4.70;;;;;;;6.27;100.00;95524.19;6131963;23;20495;-77
2022/09/30 03:26:52;;;;;;;5.53;3.70;;;;;;;6.31;100.00;95525.09;6130611;23;20726;-77
2022/09/30 03:29:28;;;;;;;5.53;4.17;;;;;;;6.23;100.00;95513.56;6130813;23;20427;-77
2022/09/30 03:31:55;;;;;;;6.40;4.30;;;;;;;6.22;100.00;95529.63;6131917;23;20411;-78
2022/09/30 03:34:43;;;;;;;6.30;4.10;;;;;;;5.78;100.00;95492.31;6106712;23;20400;-78
2022/09/30 03:37:19;;;;;;;4.60;4.10;;;;;;;6.29;100.00;95532.53;6131004;23;20420;-78
2022/09/30 03:40:09;;;;;;;7.00;3.80;;;;;;;6.24;100.00;95532.69;6131001;23;20486;-78
2022/09/30 03:42:51;;;;;;;4.23;3.20;;;;;;;6.25;100.00;95533.47;6157155;23;20934;-78
2022/09/30 03:45:33;;;;;;;4.03;3.63;;;;;;;6.39;100.00;95537.38;6130914;23;20406;-78
2022/09/30 03:48:07;;;;;;;6.83;4.00;;;;;;;6.05;100.00;95500.88;6130002;23;20423;-78
2022/09/30 03:50:36;;;;;;;9.40;4.10;;;;;;;5.42;100.00;95471.78;6156946;23;20383;-78
2022/09/30 03:53:08;;;;;;;9.40;3.93;;;;;;;5.56;100.00;95524.00;6106144;23;20411;-78
2022/09/30 03:55:46;;;;;;;5.80;4.20;;;;;;;5.64;100.00;95531.88;6156794;23;20857;-78
2022/09/30 03:58:15;;;;;;;4.20;3.80;;;;;;;5.60;100.00;95528.31;6133348;23;20418;-77
2022/09/30 04:00:48;;;;;;;5.33;3.60;;;;;;;5.69;100.00;95540.63;6133443;23;20493;-78
2022/09/30 04:03:16;;;;;;;4.40;3.03;;;;;;;5.42;100.00;95507.72;6132863;23;20376;-78
2022/09/30 04:05:43;;;;;;;6.07;4.40;;;;;;;5.52;100.00;95526.50;6108334;23;20412;-76
2022/09/30 04:08:09;;;;;;;7.10;5.00;;;;;;;5.50;100.00;95528.66;6132660;23;20436;-78
2022/09/30 04:10:39;;;;;;;5.43;3.43;;;;;;;5.40;100.00;95526.38;6132103;23;20407;-78
2022/09/30 04:13:05;;;;;;;3.87;3.47;;;;;;;5.23;100.00;95542.91;6158529;23;20507;-78
2022/09/30 04:15:32;;;;;;;8.43;3.60;;;;;;;3.75;100.00;95311.16;6159018;23;20415;-78
2022/09/30 04:17:59;;;;;;;3.20;2.90;;;;;;;4.89;100.00;95488.69;6132719;23;20431;-78
2022/09/30 04:20:25;;;;;;;4.20;3.80;;;;;;;5.31;100.00;95552.59;6132886;23;20502;-78
2022/09/30 04:22:52;;;;;;;6.13;4.77;;;;;;;4.75;100.00;95467.91;6132471;23;20415;-78
2022/09/30 04:25:19;;;;;;;7.60;4.33;;;;;;;5.32;100.00;95563.84;6159170;23;20471;-78
2022/09/30 04:27:45;;;;;;;4.43;4.03;;;;;;;5.19;100.00;95565.56;6132614;23;20446;-78
2022/09/30 04:30:12;;;;;;;5.83;4.20;;;;;;;5.07;100.00;95551.53;6107609;23;20432;-78
2022/09/30 04:32:44;;;;;;;4.17;3.77;;;;;;;5.19;100.00;95578.66;6158926;23;20399;-78
2022/09/30 04:35:12;;;;;;;4.60;4.20;;;;;;;5.20;100.00;95582.03;6131824;23;20454;-78
2022/09/30 04:37:45;;;;;;;4.50;3.80;;;;;;;5.21;100.00;95583.63;6108190;23;20427;-78
2022/09/30 04:40:14;;;;;;;4.93;3.30;;;;;;;4.86;100.00;95578.38;6132588;23;20431;-78
2022/09/30 04:42:41;;;;;;;6.83;4.60;;;;;;;2.85;100.00;95336.91;6132198;23;20454;-78
2022/09/30 04:45:12;;;;;;;3.97;3.53;;;;;;;4.33;100.00;95563.66;6132972;23;20442;-78
2022/09/30 04:47:44;;;;;;;3.80;3.50;;;;;;;4.60;100.00;95572.34;6158619;23;20404;-78
2022/09/30 04:50:12;;;;;;;3.63;3.27;;;;;;;4.66;100.00;95594.66;6158609;23;20422;-78
2022/09/30 04:52:41;;;;;;;11.97;7.90;;;;;;;4.69;100.00;95581.75;6132993;23;21309;-78
2022/09/30 04:55:09;;;;;;;12.80;9.83;;;;;;;4.69;100.00;95583.59;6133328;23;20384;-78
2022/09/30 04:57:36;;;;;;;13.83;10.27;;;;;;;4.65;100.00;95574.78;6108571;23;20431;-78
2022/09/30 05:00:04;;;;;;;8.03;5.03;;;;;;;4.58;100.00;95580.50;6133676;23;20427;-77
2022/09/30 05:02:31;;;;;;;3.83;3.50;;;;;;;4.71;100.00;95605.78;6133507;23;20446;-78
2022/09/30 05:04:57;;;;;;;4.80;4.40;;;;;;;4.52;100.00;95571.22;6132313;23;20496;-78
2022/09/30 05:07:24;;;;;;;4.40;4.10;;;;;;;4.61;100.00;95590.34;6134918;23;20404;-78
2022/09/30 05:09:52;;;;;;;5.90;3.57;;;;;;;4.65;100.00;95608.81;6133139;23;20777;-79
2022/09/30 05:12:25;;;;;;;4.37;4.07;;;;;;;4.23;100.00;95574.41;6133472;23;20404;-78
2022/09/30 05:14:51;;;;;;;3.93;3.63;;;;;;;4.26;100.00;95568.56;6110299;23;20404;-78
2022/09/30 05:17:18;;;;;;;4.57;3.40;;;;;;;4.45;100.00;95576.94;6138230;23;20428;-78
2022/09/30 05:19:45;;;;;;;4.97;4.27;;;;;;;4.57;100.00;95584.19;6115340;23;20411;-78
2022/09/30 05:22:12;;;;;;;4.53;4.00;;;;;;;4.72;100.00;95606.53;6140043;23;20404;-78
2022/09/30 05:24:39;;;;;;;4.80;4.40;;;;;;;4.56;100.00;95582.66;6167634;23;20394;-78
2022/09/30 05:27:06;;;;;;;8.23;4.57;;;;;;;4.57;100.00;95601.75;6138993;23;20451;-78
2022/09/30 05:29:33;;;;;;;6.80;4.13;;;;;;;4.28;100.00;95552.59;6163310;23;20469;-78
2022/09/30 05:32:00;;;;;;;5.40;4.57;;;;;;;4.04;100.00;95521.59;6135186;23;20971;-78
2022/09/30 05:34:26;;;;;;;4.30;4.00;;;;;;;4.27;100.00;95570.09;6162130;23;20815;-78
2022/09/30 05:36:53;;;;;;;5.63;4.73;;;;;;;4.10;100.00;95589.13;6138065;23;20423;-78
2022/09/30 05:39:19;;;;;;;13.73;5.83;;;;;;;3.96;100.00;95569.38;6139324;23;20501;-78
2022/09/30 05:41:46;;;;;;;10.83;5.23;;;;;;;4.04;100.00;95574.66;6114032;23;20400;-78
2022/09/30 05:44:13;;;;;;;6.03;4.77;;;;;;;4.19;100.00;95589.16;6112525;23;20479;-77
2022/09/30 05:46:39;;;;;;;7.40;5.77;;;;;;;4.28;100.00;95594.44;6164884;23;20452;-78
2022/09/30 05:49:06;;;;;;;6.13;5.17;;;;;;;4.36;100.00;95591.06;6137550;23;20432;-78
2022/09/30 05:51:33;;;;;;;8.53;5.50;;;;;;;4.34;100.00;95588.75;6137134;23;20390;-77
2022/09/30 05:53:59;;;;;;;10.97;6.33;;;;;;;4.22;100.00;95606.09;6139516;23;20384;-79
2022/09/30 05:56:26;;;;;;;12.33;5.90;;;;;;;3.66;100.00;95553.44;6175194;23;20368;-79
2022/09/30 05:58:52;;;;;;;9.37;5.93;;;;;;;4.16;100.00;95639.50;6152528;23;20431;-79
2022/09/30 06:01:19;;;;;;;11.73;5.40;;;;;;;3.81;100.00;95581.78;6152430;23;20400;-79
2022/09/30 06:03:47;;;;;;;11.90;6.90;;;;;;;4.33;100.00;95650.00;6148225;23;20479;-79
2022/09/30 06:06:14;;;;;;;12.17;7.77;;;;;;;4.43;100.00;95656.81;6132989;23;20435;-79
2022/09/30 06:08:42;;;;;;;13.40;7.77;;;;;;;4.24;100.00;95617.03;6158924;23;20420;-79
2022/09/30 06:11:14;;;;;;;16.53;9.10;;;;;;;4.22;100.00;95640.88;6132268;23;20893;-79
2022/09/30 06:13:43;;;;;;;15.17;9.90;;;;;;;3.62;100.00;95565.56;6133176;23;20467;-79
2022/09/30 06:16:11;;;;;;;11.90;6.90;;;;;;;4.30;100.00;95662.94;6133103;23;20395;-79
2022/09/30 06:18:40;;;;;;;11.40;7.80;;;;;;;4.58;100.00;95693.06;6130969;23;20419;-77
2022/09/30 06:21:10;;;;;;;14.73;7.20;;;;;;;4.69;100.00;95690.94;6128815;23;20498;-77
2022/09/30 06:23:38;;;;;;;12.00;7.67;;;;;;;4.70;100.00;95689.84;6129233;23;20368;-77
2022/09/30 06:26:07;;;;;;;9.07;7.43;;;;;;;4.75;100.00;95692.31;6128742;23;20392;-77
2022/09/30 06:28:34;;;;;;;8.00;6.83;;;;;;;4.47;100.00;95654.38;6104337;23;20420;-77
2022/09/30 06:31:01;;;;;;;9.03;7.00;;;;;;;4.57;100.00;95675.81;6128844;23;20398;-77
2022/09/30 06:33:28;;;;;;;6.70;6.13;;;;;;;4.36;100.00;95638.16;6104416;23;20495;-77
2022/09/30 06:35:55;;;;;;;9.10;7.43;;;;;;;4.72;100.00;95708.66;6129756;23;20414;-77
2022/09/30 06:38:22;;;;;;;19.03;5.80;;;;;;;4.67;100.00;95682.59;6129035;23;20423;-77
2022/09/30 06:40:49;;;;;;;7.47;5.53;;;;;;;4.97;100.00;95715.81;6128738;23;20937;-77
2022/09/30 06:43:16;;;;;;;4.73;4.23;;;;;;;5.10;100.00;95705.50;6154939;23;20395;-77
2022/09/30 06:45:45;;;;;;;6.97;6.37;;;;;;;5.13;100.00;95697.03;6104365;23;20869;-77
2022/09/30 06:48:12;;;;;;;6.23;5.07;;;;;;;5.43;100.00;95734.66;6154516;23;20408;-77
2022/09/30 06:50:39;;;;;;;6.40;5.10;;;;;;;5.50;100.00;95729.75;6103874;23;20510;-77
2022/09/30 06:53:10;;;;;;;8.03;6.60;;;;;;;5.63;100.00;95734.84;6128373;23;20450;-77
2022/09/30 06:55:38;;;;;;;7.70;6.70;;;;;;;5.64;100.00;95712.03;6127998;23;20498;-77
2022/09/30 06:58:08;;;;;;;11.60;6.53;;;;;;;5.82;100.00;95724.03;6103740;23;20451;-77
2022/09/30 07:00:35;;;;;;;14.67;6.87;;;;;;;5.93;100.00;95735.78;6128332;23;20893;-77
2022/09/30 07:03:04;;;;;;;10.00;6.57;;;;;;;6.17;100.00;95729.28;6154521;23;20384;-77
2022/09/30 07:05:31;;;;;;;9.87;8.23;;;;;;;6.16;100.00;95685.75;6128708;23;20415;-77
2022/09/30 07:07:57;;;;;;;8.53;7.40;;;;;;;6.15;100.00;95678.94;6128511;23;20431;-77
2022/09/30 07:10:24;;;;;;;7.90;7.10;;;;;;;6.34;100.00;95687.22;6103795;23;20442;-76
2022/09/30 07:12:51;;;;;;;8.40;6.83;;;;;;;6.64;100.00;95658.34;6128628;23;20871;-77
2022/09/30 07:15:22;;;;;;;8.40;7.57;;;;;;;6.95;100.00;95714.00;6127856;23;20723;-78
2022/09/30 07:17:53;;;;;;;7.10;6.40;;;;;;;7.21;100.00;95720.94;6103333;23;20534;-77
2022/09/30 07:20:20;;;;;;;6.97;6.27;;;;;;;6.92;100.00;95677.81;6128211;23;20734;-77
2022/09/30 07:22:47;;;;;;;7.93;7.13;;;;;;;7.43;100.00;95702.25;6132989;23;20380;-77
2022/09/30 07:25:14;;;;;;;7.50;6.80;;;;;;;7.49;100.00;95714.13;6142251;23;20388;-77
2022/09/30 07:27:41;;;;;;;8.83;7.97;;;;;;;7.57;100.00;95723.78;6142082;23;20427;-77
2022/09/30 07:30:08;;;;;;;14.23;7.80;;;;;;;7.84;100.00;95727.75;6144038;23;20420;-77
2022/09/30 07:32:46;;;;;;;9.60;7.10;;;;;;;8.15;100.00;95714.16;6146857;23;20364;-77
2022/09/30 07:35:13;;;;;;;7.03;5.97;;;;;;;8.24;100.00;95746.44;6138632;23;20442;-77
2022/09/30 07:37:40;;;;;;;7.80;7.00;;;;;;;8.30;100.00;95734.63;6131923;23;20739;-77
2022/09/30 07:40:08;;;;;;;7.63;6.47;;;;;;;8.11;100.00;95692.19;6131714;23;20404;-78
2022/09/30 07:42:44;;;;;;;7.90;6.70;;;;;;;8.48;100.00;95758.94;6106346;23;20424;-78
2022/09/30 07:45:15;;;;;;;7.00;6.10;;;;;;;8.32;100.00;95720.34;6132067;23;20392;-78
2022/09/30 07:47:42;;;;;;;7.60;6.80;;;;;;;8.16;100.00;95720.19;6106555;23;20463;-77
2022/09/30 07:50:09;;;;;;;7.40;6.70;;;;;;;8.04;100.00;95694.59;6130606;23;20427;-78
2022/09/30 07:52:36;;;;;;;7.40;6.10;;;;;;;8.83;100.00;95759.31;6106803;23;20400;-78
2022/09/30 07:55:03;;;;;;;5.70;5.20;;;;;;;9.07;100.00;95723.50;6107138;23;20414;-78
2022/09/30 07:57:30;;;;;;;5.20;4.70;;;;;;;8.83;100.00;95735.59;6131476;23;20448;-78
2022/09/30 07:59:56;;;;;;;5.50;5.00;;;;;;;9.50;100.00;95767.00;6131159;23;20743;-78
2022/09/30 08:02:23;;;;;;;5.77;5.17;;;;;;;9.43;100.00;95763.03;6157394;23;20458;-78
2022/09/30 08:04:50;;;;;;;6.13;5.20;;;;;;;9.42;100.00;95743.03;6157024;23;20443;-78
2022/09/30 08:07:18;;;;;;;4.57;4.10;;;;;;;9.69;100.00;95801.47;6157249;23;20404;-78
2022/09/30 08:09:46;;;;;;;4.70;4.30;;;;;;;9.58;100.00;95780.06;6129980;23;20422;-79
2022/09/30 08:12:13;;;;;;;4.93;4.53;;;;;;;9.92;100.00;95807.06;6156865;23;20406;-78
2022/09/30 08:14:39;;;;;;;9.23;5.27;;;;;;;9.32;100.00;95779.63;6130460;23;20483;-78
2022/09/30 08:17:06;;;;;;;5.47;4.97;;;;;;;9.66;100.00;95778.41;6106034;23;20431;-78
2022/09/30 08:19:33;;;;;;;4.60;4.03;;;;;;;9.80;100.00;95791.22;6129966;23;20415;-78
2022/09/30 08:22:00;;;;;;;4.83;4.10;;;;;;;10.25;100.00;95802.34;6130179;23;20499;-77
2022/09/30 08:24:28;;;;;;;4.30;4.00;;;;;;;9.99;100.00;95776.31;6130210;23;20455;-78
2022/09/30 08:26:55;;;;;;;4.23;3.83;;;;;;;9.55;100.00;95782.59;6130260;23;20404;-77
2022/09/30 08:29:22;;;;;;;3.93;3.60;;;;;;;9.63;100.00;95761.38;6155696;23;20433;-78
2022/09/30 08:32:08;;;;;;;4.73;4.30;;;;;;;9.83;100.00;95761.53;6134647;23;20378;-77
2022/09/30 08:34:35;;;;;;;5.10;4.37;;;;;;;9.97;100.00;95778.53;6105553;23;20466;-78
2022/09/30 08:37:03;;;;;;;4.33;3.97;;;;;;;9.45;100.00;95767.97;6131009;23;20431;-78
2022/09/30 08:39:36;;;;;;;5.63;4.73;;;;;;;8.97;100.00;95711.53;6129641;23;20439;-77
2022/09/30 08:42:38;;;;;;;7.07;4.90;;;;;;;9.71;100.00;95823.03;6105656;23;21010;-78
2022/09/30 08:45:21;;;;;;;5.27;4.03;;;;;;;9.77;100.00;95816.44;6132420;23;20400;-78
2022/09/30 08:48:05;;;;;;;6.20;4.37;;;;;;;9.98;100.00;95822.31;6108970;23;20522;-78
2022/09/30 08:50:46;;;;;;;4.53;4.10;;;;;;;10.28;100.00;95838.66;6132726;23;20430;-78
2022/09/30 08:53:39;;;;;;;6.90;5.10;;;;;;;10.41;100.00;95828.81;6131454;23;20400;-79
2022/09/30 08:56:07;;;;;;;5.83;4.50;;;;;;;10.64;100.00;95821.88;6132929;23;20369;-78
2022/09/30 08:58:43;;;;;;;7.90;5.30;;;;;;;10.60;100.00;95818.38;6107835;23;20457;-79
2022/09/30 09:01:24;;;;;;;8.13;3.43;;;;;;;10.30;100.00;95785.50;6132839;23;20396;-78
2022/09/30 09:03:52;;;;;;;3.83;3.60;;;;;;;10.73;100.00;95834.19;6132065;23;20398;-77
2022/09/30 09:06:24;;;;;;;3.20;2.67;;;;;;;10.72;100.00;95832.63;6158228;23;20400;-78
2022/09/30 09:09:03;;;;;;;4.07;3.67;;;;;;;10.46;100.00;95799.50;6157967;23;20404;-78
2022/09/30 09:11:52;;;;;;;3.13;2.93;;;;;;;10.70;100.00;95837.50;6131866;23;20412;-78
2022/09/30 09:14:36;;;;;;;3.40;2.80;;;;;;;10.69;100.00;95843.91;6131593;23;20821;-78
2022/09/30 09:17:21;;;;;;;3.27;2.97;;;;;;;10.80;100.00;95824.53;6131646;23;20396;-78
2022/09/30 09:19:54;;;;;;;3.67;3.37;;;;;;;10.72;100.00;95843.22;6142697;23;20411;-78
2022/09/30 09:22:22;;;;;;;3.67;3.37;;;;;;;10.62;100.00;95815.38;6149679;23;20424;-78
2022/09/30 09:24:52;;;;;;;5.23;4.23;;;;;;;11.21;100.00;95848.97;6125511;23;20403;-77
2022/09/30 09:27:22;;;;;;;4.70;3.37;;;;;;;11.35;100.00;95853.84;6151201;23;20430;-78
2022/09/30 09:30:12;;;;;;;3.10;2.40;;;;;;;11.18;100.00;95826.59;6127571;23;20432;-77
2022/09/30 09:32:40;;;;;;;2.57;1.67;;;;;;;11.13;100.00;95826.09;6151283;23;20364;-78
2022/09/30 09:35:17;;;;;;;7.00;2.70;;;;;;;11.03;100.00;95805.44;6156861;23;20385;-78
2022/09/30 09:38:26;;;;;;;2.13;1.93;;;;;;;11.05;100.00;95768.84;6130406;23;20929;-78
2022/09/30 09:41:14;;;;;;;2.27;2.07;;;;;;;11.63;100.00;95865.09;6130214;23;20399;-78
2022/09/30 09:43:54;;;;;;;2.50;1.70;;;;;;;11.86;100.00;95867.13;6130443;23;20502;-78
2022/09/30 09:46:29;;;;;;;1.70;1.60;;;;;;;11.92;100.00;95829.44;6130359;23;20514;-78
2022/09/30 09:49:22;;;;;;;2.60;2.40;;;;;;;12.09;100.00;95844.94;6156455;23;20400;-78
2022/09/30 09:52:22;;;;;;;2.03;1.90;;;;;;;11.90;100.00;95847.56;6123124;23;20407;-78
2022/09/30 09:54:55;;;;;;;3.20;2.10;;;;;;;11.52;100.00;95806.63;6155375;23;20388;-78
2022/09/30 09:57:30;;;;;;;2.53;1.60;;;;;;;11.60;100.00;95793.50;6105842;23;20427;-78
2022/09/30 10:03:22;;;;;;;3.73;2.17;;;;;;;11.50;100.00;95786.91;6155777;23;20455;-78
2022/09/30 10:06:09;;;;;;;2.10;1.70;;;;;;;12.26;100.00;95854.34;6129952;23;20364;-78
2022/09/30 10:08:51;;;;;;;3.70;1.47;;;;;;;11.74;100.00;95855.50;6105144;23;20424;-78
2022/09/30 10:11:24;;;;;;;3.60;1.60;;;;;;;11.43;100.00;95819.25;6129248;23;20463;-78
2022/09/30 10:13:59;;;;;;;2.43;1.90;;;;;;;11.61;100.00;95830.22;6129363;23;20406;-78
2022/09/30 10:16:34;;;;;;;1.93;1.83;;;;;;;12.10;100.00;95851.00;6129997;23;20865;-78
2022/09/30 10:19:20;;;;;;;4.00;2.00;;;;;;;11.99;100.00;95828.81;6104953;23;20518;-78
2022/09/30 10:21:47;;;;;;;1.70;1.60;;;;;;;12.03;100.00;95856.16;6130094;23;20419;-78
2022/09/30 10:24:27;;;;;;;1.80;1.70;;;;;;;12.32;100.00;95868.88;6132390;23;20404;-78
2022/09/30 10:26:54;;;;;;;2.57;1.93;;;;;;;12.41;100.00;95853.53;6105956;23;20391;-78
2022/09/30 10:29:33;;;;;;;2.43;1.90;;;;;;;12.71;100.00;95863.56;6129981;23;20744;-78
2022/09/30 10:32:05;;;;;;;2.30;2.10;;;;;;;12.97;100.00;95871.63;6130608;23;20380;-78
2022/09/30 10:34:35;;;;;;;2.63;1.40;;;;;;;12.50;100.00;95836.66;6156492;23;20368;-78
2022/09/30 10:37:10;;;;;;;1.60;1.50;;;;;;;12.02;100.00;95809.56;6130236;23;20384;-78
2022/09/30 10:39:40;;;;;;;1.87;1.77;;;;;;;12.39;100.00;95876.97;6129862;23;20489;-78
2022/09/30 10:42:25;;;;;;;2.50;2.27;;;;;;;12.61;100.00;95866.78;6156593;23;20857;-78
2022/09/30 10:45:19;;;;;;;2.70;1.77;;;;;;;12.49;100.00;95874.88;6130878;23;20392;-78
2022/09/30 10:47:50;;;;;;;1.57;1.47;;;;;;;12.53;100.00;95876.47;6121203;23;20515;-78
2022/09/30 10:50:20;;;;;;;2.00;1.90;;;;;;;12.45;100.00;95847.53;6106749;23;20431;-78
2022/09/30 10:52:59;;;;;;;2.40;1.90;;;;;;;12.62;100.00;95855.81;6131879;23;20427;-78
2022/09/30 10:55:40;;;;;;;3.10;1.83;;;;;;;12.86;100.00;95869.91;6106641;23;20396;-78
2022/09/30 10:58:44;;;;;;;2.93;2.20;;;;;;;12.91;100.00;95865.06;6157238;23;20410;-78
2022/09/30 11:01:20;;;;;;;4.17;2.50;;;;;;;12.98;100.00;95859.13;6131617;23;20384;-78
2022/09/30 11:04:05;;;;;;;1.70;1.60;;;;;;;12.89;100.00;95855.94;6130516;23;20434;-78
2022/09/30 11:06:37;;;;;;;2.83;2.60;;;;;;;12.56;100.00;95828.06;6129503;23;20416;-78
2022/09/30 11:09:45;;;;;;;4.63;2.20;;;;;;;13.22;100.00;95863.34;6129369;23;20445;-78
2022/09/30 11:12:48;;;;;;;2.00;1.80;;;;;;;13.39;100.00;95870.84;6129584;23;20503;-78
2022/09/30 11:15:23;;;;;;;1.83;1.70;;;;;;;13.36;100.00;95860.94;6132272;23;20483;-78
2022/09/30 11:17:56;;;;;;;3.50;1.80;;;;;;;13.31;100.00;95840.75;6125827;23;20428;-77
2022/09/30 11:20:33;;;;;;;4.10;3.80;;;;;;;13.43;100.00;95865.59;6150336;23;20472;-78
2022/09/30 11:23:16;;;;;;;2.10;2.00;;;;;;;13.58;100.00;95880.63;6148989;23;20364;-78
2022/09/30 11:25:51;;;;;;;2.20;1.67;;;;;;;13.66;100.00;95874.31;6149623;23;20359;-78
2022/09/30 11:28:36;;;;;;;2.37;1.80;;;;;;;13.63;100.00;95847.69;6135013;23;20522;-78
2022/09/30 11:31:42;;;;;;;2.63;2.00;;;;;;;14.00;100.00;95883.13;6104785;23;20463;-78
2022/09/30 11:34:19;;;;;;;1.70;1.60;;;;;;;13.74;100.00;95881.25;6154530;23;20415;-78
2022/09/30 11:37:17;;;;;;;2.40;1.50;;;;;;;13.45;100.00;95852.72;6104457;23;20503;-78
2022/09/30 11:39:57;;;;;;;2.63;1.80;;;;;;;13.84;100.00;95885.97;6129320;23;20384;-78
2022/09/30 11:42:45;;;;;;;1.30;1.20;;;;;;;14.25;100.00;95882.72;6129176;23;20400;-78
2022/09/30 11:45:38;;;;;;;1.83;1.57;;;;;;;13.92;100.00;95856.84;6128618;23;20912;-78
2022/09/30 11:48:24;;;;;;;1.63;1.20;;;;;;;14.54;100.00;95881.19;6128493;23;20886;-78
2022/09/30 11:51:09;;;;;;;2.33;1.87;;;;;;;14.44;97.16;95886.03;6128753;23;20436;-78
2022/09/30 11:53:39;;;;;;;1.90;1.70;;;;;;;14.67;100.00;95887.81;6104350;23;20735;-78
2022/09/30 11:56:19;;;;;;;2.63;2.43;;;;;;;15.20;93.98;95884.94;6154697;23;20411;-78
2022/09/30 11:58:52;;;;;;;4.77;1.63;;;;;;;15.42;89.78;95885.91;6128584;23;20479;-78
2022/09/30 12:01:42;;;;;;;3.57;1.60;;;;;;;15.42;87.29;95877.91;6128904;23;20500;-78
2022/09/30 12:04:21;;;;;;;2.00;1.63;;;;;;;14.82;89.36;95841.59;6128672;23;20754;-78
2022/09/30 12:07:04;;;;;;;1.80;1.60;;;;;;;15.61;89.80;95875.03;6104444;23;20395;-78